Time;durP1;ratioP1;P1;durP2;ratioP2;P2;SDS_P1;SDS_P2;PMS_P1;PMS_P2;Temp;Humidity;BMP_temperature;BMP_pressure;BME280_temperature;BME280_humidity;BME280_pressure;Samples;Min_cycle;Max_cycle;Signal;HPM_P1;HPM_P2
2023/06/18 00:01:03;;;;;;;8.38;4.95;;;;;;;;;;4956516;28;20568;-70
2023/06/18 00:03:29;;;;;;;8.98;4.90;;;;;;;;;;4960050;28;20022;-70
2023/06/18 00:05:55;;;;;;;9.20;4.97;;;;;;;;;;4961547;28;20560;-70
2023/06/18 00:08:22;;;;;;;8.68;4.53;;;;;;;;;;4954584;28;20124;-70
2023/06/18 00:10:48;;;;;;;8.40;4.10;;;;;;;;;;4944113;28;20469;-70
2023/06/18 00:13:15;;;;;;;8.40;4.53;;;;;;;;;;4955817;28;20134;-71
2023/06/18 00:15:41;;;;;;;9.80;4.90;;;;;;;;;;4959862;28;20031;-71
2023/06/18 00:18:07;;;;;;;9.77;4.78;;;;;;;;;;4944815;28;20471;-71
2023/06/18 00:20:33;;;;;;;8.68;4.70;;;;;;;;;;4960658;28;20452;-71
2023/06/18 00:23:00;;;;;;;8.30;4.38;;;;;;;;;;4962467;28;20031;-71
2023/06/18 00:25:26;;;;;;;8.75;4.65;;;;;;;;;;4957202;28;20507;-71
2023/06/18 00:27:52;;;;;;;8.57;4.10;;;;;;;;;;4961598;28;20045;-70
2023/06/18 00:30:19;;;;;;;8.68;3.53;;;;;;;;;;4956334;28;20038;-69
2023/06/18 00:32:45;;;;;;;8.02;3.90;;;;;;;;;;4965434;28;20391;-69
2023/06/18 00:35:12;;;;;;;8.02;4.18;;;;;;;;;;4957657;28;20038;-69
2023/06/18 00:37:39;;;;;;;7.93;4.20;;;;;;;;;;4946021;28;20037;-69
2023/06/18 00:40:06;;;;;;;9.43;4.25;;;;;;;;;;4957672;28;20056;-71
2023/06/18 00:42:32;;;;;;;8.68;4.30;;;;;;;;;;4965939;28;20034;-70
2023/06/18 00:44:58;;;;;;;7.63;4.20;;;;;;;;;;4964657;28;20120;-71
2023/06/18 00:47:26;;;;;;;8.52;4.43;;;;;;;;;;4964316;28;20129;-70
2023/06/18 00:49:55;;;;;;;8.40;4.10;;;;;;;;;;4953587;28;20041;-70
2023/06/18 00:52:23;;;;;;;10.50;4.85;;;;;;;;;;4946336;28;21421;-70
2023/06/18 00:54:50;;;;;;;9.25;4.28;;;;;;;;;;4952583;28;20031;-72
2023/06/18 00:57:20;;;;;;;9.07;4.32;;;;;;;;;;4948993;28;20034;-72
2023/06/18 00:59:50;;;;;;;9.20;4.80;;;;;;;;;;4954000;28;20031;-69
2023/06/18 01:02:23;;;;;;;8.48;4.38;;;;;;;;;;4945745;28;20130;-70
2023/06/18 01:04:53;;;;;;;9.27;4.95;;;;;;;;;;4965782;28;20056;-70
2023/06/18 01:07:20;;;;;;;9.07;4.05;;;;;;;;;;4960380;28;20033;-69
2023/06/18 01:09:53;;;;;;;9.48;4.70;;;;;;;;;;4965282;28;20034;-72
2023/06/18 01:12:19;;;;;;;11.77;3.90;;;;;;;;;;4961425;28;20034;-72
2023/06/18 01:14:50;;;;;;;8.00;4.15;;;;;;;;;;4965700;28;20030;-71
2023/06/18 01:17:18;;;;;;;8.38;4.00;;;;;;;;;;4949192;28;20035;-70
2023/06/18 01:19:47;;;;;;;9.10;4.03;;;;;;;;;;4964527;28;20351;-70
2023/06/18 01:22:32;;;;;;;8.98;4.38;;;;;;;;;;4957601;28;20042;-70
2023/06/18 01:25:02;;;;;;;8.35;4.10;;;;;;;;;;4946446;28;20030;-71
2023/06/18 01:27:28;;;;;;;7.93;3.83;;;;;;;;;;4964101;28;20034;-70
2023/06/18 01:29:54;;;;;;;9.40;4.35;;;;;;;;;;4966621;28;20353;-70
2023/06/18 01:32:21;;;;;;;9.48;4.05;;;;;;;;;;4960412;28;20554;-70
2023/06/18 01:34:47;;;;;;;8.07;4.00;;;;;;;;;;4963093;28;20485;-71
2023/06/18 01:37:33;;;;;;;8.20;3.80;;;;;;;;;;4963340;28;20155;-69
2023/06/18 01:40:02;;;;;;;7.32;3.88;;;;;;;;;;4948580;28;20481;-69
2023/06/18 01:42:31;;;;;;;9.05;4.32;;;;;;;;;;4965855;28;20029;-69
2023/06/18 01:45:03;;;;;;;9.43;4.05;;;;;;;;;;4965825;28;20037;-69
2023/06/18 01:47:30;;;;;;;8.00;4.30;;;;;;;;;;4963329;28;20394;-69
2023/06/18 01:49:58;;;;;;;8.57;3.80;;;;;;;;;;4964930;28;20444;-71
2023/06/18 01:52:25;;;;;;;8.77;4.22;;;;;;;;;;4959756;28;20038;-71
2023/06/18 01:54:52;;;;;;;8.25;3.90;;;;;;;;;;4962298;28;20041;-72
2023/06/18 01:57:18;;;;;;;8.13;4.00;;;;;;;;;;4960308;28;20073;-69
2023/06/18 01:59:44;;;;;;;9.57;4.15;;;;;;;;;;4965881;28;20623;-72
2023/06/18 02:02:15;;;;;;;9.38;4.28;;;;;;;;;;4960817;28;20057;-71
2023/06/18 02:04:45;;;;;;;9.20;4.60;;;;;;;;;;4964713;28;20609;-71
2023/06/18 02:07:12;;;;;;;8.02;4.43;;;;;;;;;;4960257;28;20034;-71
2023/06/18 02:09:38;;;;;;;8.00;4.07;;;;;;;;;;4964018;28;20065;-71
2023/06/18 02:12:05;;;;;;;8.57;4.00;;;;;;;;;;4960417;28;20117;-71
2023/06/18 02:14:31;;;;;;;8.55;3.95;;;;;;;;;;4965050;28;20046;-71
2023/06/18 02:16:59;;;;;;;7.47;4.00;;;;;;;;;;4964490;28;20034;-71
2023/06/18 02:19:25;;;;;;;8.93;3.78;;;;;;;;;;4961992;28;20038;-71
2023/06/18 02:21:51;;;;;;;9.70;4.15;;;;;;;;;;4963398;28;20073;-70
2023/06/18 02:24:17;;;;;;;9.02;3.75;;;;;;;;;;4963884;28;20085;-70
2023/06/18 02:26:43;;;;;;;10.27;3.88;;;;;;;;;;4962141;28;20852;-70
2023/06/18 02:29:09;;;;;;;7.82;3.92;;;;;;;;;;4958375;28;20441;-70
2023/06/18 02:31:35;;;;;;;8.93;3.67;;;;;;;;;;4962584;28;20034;-69
2023/06/18 02:34:02;;;;;;;8.00;3.70;;;;;;;;;;4961616;28;20026;-69
2023/06/18 02:36:28;;;;;;;8.73;3.90;;;;;;;;;;4962602;28;20110;-70
2023/06/18 02:38:55;;;;;;;8.00;3.67;;;;;;;;;;4965112;28;20437;-70
2023/06/18 02:41:21;;;;;;;7.85;3.47;;;;;;;;;;4944211;28;20571;-70
2023/06/18 02:43:49;;;;;;;8.30;3.50;;;;;;;;;;4963959;28;20613;-70
2023/06/18 02:46:18;;;;;;;8.23;3.80;;;;;;;;;;4960835;28;20034;-70
2023/06/18 02:48:45;;;;;;;8.82;3.80;;;;;;;;;;4962934;28;20027;-70
2023/06/18 02:51:11;;;;;;;9.48;3.70;;;;;;;;;;4960719;28;20073;-70
2023/06/18 02:53:37;;;;;;;7.47;3.70;;;;;;;;;;4964170;28;20068;-70
2023/06/18 02:56:04;;;;;;;7.35;3.47;;;;;;;;;;4959768;28;20898;-72
2023/06/18 02:58:30;;;;;;;8.60;3.78;;;;;;;;;;4944855;28;20221;-70
2023/06/18 03:00:56;;;;;;;7.95;3.90;;;;;;;;;;4962847;28;20464;-70
2023/06/18 03:03:23;;;;;;;8.20;3.78;;;;;;;;;;4946012;28;20069;-70
2023/06/18 03:05:49;;;;;;;7.15;3.50;;;;;;;;;;4963551;28;20368;-70
2023/06/18 03:08:15;;;;;;;7.38;3.45;;;;;;;;;;4959475;28;20485;-70
2023/06/18 03:10:43;;;;;;;7.30;3.58;;;;;;;;;;4950423;28;20038;-70
2023/06/18 03:13:09;;;;;;;8.32;3.50;;;;;;;;;;4958602;28;20037;-70
2023/06/18 03:15:35;;;;;;;8.40;3.67;;;;;;;;;;4963211;28;20181;-70
2023/06/18 03:18:02;;;;;;;10.15;3.83;;;;;;;;;;4962156;28;20466;-70
2023/06/18 03:20:28;;;;;;;10.63;4.10;;;;;;;;;;4963758;28;20567;-70
2023/06/18 03:22:54;;;;;;;7.80;3.83;;;;;;;;;;4950467;28;20042;-70
2023/06/18 03:25:20;;;;;;;7.47;3.67;;;;;;;;;;4958528;28;20042;-70
2023/06/18 03:27:47;;;;;;;7.68;3.70;;;;;;;;;;4960482;28;20049;-70
2023/06/18 03:30:14;;;;;;;8.00;3.40;;;;;;;;;;4956244;28;20120;-70
2023/06/18 03:32:40;;;;;;;7.30;3.45;;;;;;;;;;4959191;28;20038;-70
2023/06/18 03:35:07;;;;;;;8.43;4.00;;;;;;;;;;4945233;28;20066;-70
2023/06/18 03:37:33;;;;;;;9.30;3.80;;;;;;;;;;4962096;28;20114;-69
2023/06/18 03:39:59;;;;;;;9.25;3.80;;;;;;;;;;4958815;28;20077;-69
2023/06/18 03:42:25;;;;;;;8.35;4.05;;;;;;;;;;4958571;28;20705;-69
2023/06/18 03:44:51;;;;;;;10.23;4.40;;;;;;;;;;4943397;28;20064;-69
2023/06/18 03:47:18;;;;;;;8.30;4.15;;;;;;;;;;4954574;28;20109;-70
2023/06/18 03:49:44;;;;;;;9.52;4.15;;;;;;;;;;4961823;28;20034;-71
2023/06/18 03:52:10;;;;;;;7.45;3.75;;;;;;;;;;4959457;28;20054;-71
2023/06/18 03:54:38;;;;;;;7.93;4.10;;;;;;;;;;4959934;28;20420;-71
2023/06/18 03:57:04;;;;;;;10.15;4.15;;;;;;;;;;4957641;28;20026;-70
2023/06/18 03:59:31;;;;;;;9.15;3.70;;;;;;;;;;4959607;28;20027;-70
2023/06/18 04:01:57;;;;;;;7.90;3.72;;;;;;;;;;4958916;28;20465;-70
2023/06/18 04:04:24;;;;;;;9.65;3.95;;;;;;;;;;4957618;28;20380;-70
2023/06/18 04:06:50;;;;;;;13.25;4.10;;;;;;;;;;4960832;28;20033;-71
2023/06/18 04:09:16;;;;;;;11.43;3.97;;;;;;;;;;4957124;28;20394;-71
2023/06/18 04:11:42;;;;;;;8.48;4.20;;;;;;;;;;4946198;28;20440;-71
2023/06/18 04:14:09;;;;;;;8.38;3.47;;;;;;;;;;4958152;28;20026;-71
2023/06/18 04:16:35;;;;;;;8.38;3.70;;;;;;;;;;4966020;28;20049;-69
2023/06/18 04:19:02;;;;;;;8.50;3.63;;;;;;;;;;4966045;28;20070;-71
2023/06/18 04:21:28;;;;;;;7.45;3.50;;;;;;;;;;4964177;28;20072;-71
2023/06/18 04:23:54;;;;;;;7.55;3.53;;;;;;;;;;4966209;28;20038;-69
2023/06/18 04:26:22;;;;;;;9.77;3.78;;;;;;;;;;4960143;28;20066;-71
2023/06/18 04:28:48;;;;;;;7.70;3.33;;;;;;;;;;4965868;28;20051;-71
2023/06/18 04:31:14;;;;;;;8.82;3.38;;;;;;;;;;4958104;28;20038;-69
2023/06/18 04:33:40;;;;;;;8.65;3.90;;;;;;;;;;4966698;28;20039;-71
2023/06/18 04:36:06;;;;;;;7.47;3.42;;;;;;;;;;4960797;28;20082;-71
2023/06/18 04:38:32;;;;;;;7.60;3.38;;;;;;;;;;4966742;28;20282;-69
2023/06/18 04:40:58;;;;;;;9.32;3.42;;;;;;;;;;4966706;28;20022;-72
2023/06/18 04:43:25;;;;;;;8.35;4.18;;;;;;;;;;4946013;28;20044;-70
2023/06/18 04:45:52;;;;;;;13.75;4.40;;;;;;;;;;4965520;28;20084;-70
2023/06/18 04:48:18;;;;;;;9.82;4.55;;;;;;;;;;4948018;28;20159;-70
2023/06/18 04:50:44;;;;;;;8.52;4.13;;;;;;;;;;4963265;28;20033;-70
2023/06/18 04:53:10;;;;;;;9.85;4.50;;;;;;;;;;4960182;28;20034;-70
2023/06/18 04:55:37;;;;;;;11.55;4.13;;;;;;;;;;4964405;28;20026;-70
2023/06/18 04:58:07;;;;;;;9.63;3.90;;;;;;;;;;4959403;28;20030;-70
2023/06/18 05:00:33;;;;;;;9.55;4.30;;;;;;;;;;4963885;28;20034;-70
2023/06/18 05:03:00;;;;;;;8.57;4.35;;;;;;;;;;4965651;28;20485;-70
2023/06/18 05:05:27;;;;;;;8.45;3.90;;;;;;;;;;4960718;28;20112;-70
2023/06/18 05:07:53;;;;;;;7.85;3.83;;;;;;;;;;4955526;28;20042;-71
2023/06/18 05:10:20;;;;;;;10.73;4.15;;;;;;;;;;4941463;28;20105;-69
2023/06/18 05:12:46;;;;;;;9.23;4.47;;;;;;;;;;4963960;28;20062;-69
2023/06/18 05:15:12;;;;;;;13.45;5.00;;;;;;;;;;4962610;28;20022;-69
2023/06/18 05:17:38;;;;;;;14.60;4.88;;;;;;;;;;4964516;28;20169;-70
2023/06/18 05:20:05;;;;;;;19.67;5.47;;;;;;;;;;4947589;28;20483;-72
2023/06/18 05:22:31;;;;;;;12.82;5.13;;;;;;;;;;4966365;28;20041;-69
2023/06/18 05:25:01;;;;;;;14.00;5.55;;;;;;;;;;4962830;28;20082;-69
2023/06/18 05:27:30;;;;;;;22.63;6.03;;;;;;;;;;4966220;28;20030;-69
2023/06/18 05:29:56;;;;;;;20.13;6.50;;;;;;;;;;4965718;28;20087;-69
2023/06/18 05:32:23;;;;;;;15.63;5.68;;;;;;;;;;4944744;28;20588;-70
2023/06/18 05:34:49;;;;;;;17.55;5.70;;;;;;;;;;4964715;28;20089;-70
2023/06/18 05:37:16;;;;;;;13.15;5.00;;;;;;;;;;4946907;28;20504;-69
2023/06/18 05:39:42;;;;;;;11.70;4.65;;;;;;;;;;4948347;28;20338;-70
2023/06/18 05:42:08;;;;;;;12.80;4.43;;;;;;;;;;4947461;28;20501;-70
2023/06/18 05:44:34;;;;;;;11.48;4.43;;;;;;;;;;4965153;28;20053;-70
2023/06/18 05:47:01;;;;;;;13.70;5.15;;;;;;;;;;4963085;28;20440;-70
2023/06/18 05:49:27;;;;;;;15.55;5.15;;;;;;;;;;4964851;28;20074;-71
2023/06/18 05:51:53;;;;;;;10.13;4.57;;;;;;;;;;4962073;28;20436;-70
2023/06/18 05:54:19;;;;;;;12.68;4.45;;;;;;;;;;4959199;28;20351;-71
2023/06/18 05:56:46;;;;;;;11.07;4.57;;;;;;;;;;4965698;28;20087;-70
2023/06/18 05:59:12;;;;;;;9.35;4.25;;;;;;;;;;4946343;28;20078;-71
2023/06/18 06:01:38;;;;;;;11.77;4.70;;;;;;;;;;4964524;28;20030;-70
2023/06/18 06:04:04;;;;;;;9.13;3.92;;;;;;;;;;4960901;28;20415;-70
2023/06/18 06:06:30;;;;;;;10.98;4.13;;;;;;;;;;4953912;28;20128;-70
2023/06/18 06:08:57;;;;;;;10.80;3.60;;;;;;;;;;4963950;28;20050;-69
2023/06/18 06:11:23;;;;;;;13.25;4.05;;;;;;;;;;4960746;28;20318;-69
2023/06/18 06:13:49;;;;;;;7.65;3.42;;;;;;;;;;4965296;28;20037;-69
2023/06/18 06:16:15;;;;;;;9.27;3.70;;;;;;;;;;4960729;28;20027;-70
2023/06/18 06:18:41;;;;;;;9.07;3.55;;;;;;;;;;4963959;28;20026;-70
2023/06/18 06:21:08;;;;;;;10.32;3.60;;;;;;;;;;4961462;28;20057;-70
2023/06/18 06:23:34;;;;;;;8.68;3.90;;;;;;;;;;4964646;28;20357;-70
2023/06/18 06:26:01;;;;;;;10.20;3.70;;;;;;;;;;4962826;28;20350;-70
2023/06/18 06:28:27;;;;;;;9.07;3.75;;;;;;;;;;4962800;28;20030;-70
2023/06/18 06:30:53;;;;;;;7.65;3.50;;;;;;;;;;4946931;28;20030;-69
2023/06/18 06:33:19;;;;;;;7.13;3.47;;;;;;;;;;4942280;28;20058;-69
2023/06/18 06:35:46;;;;;;;6.60;3.20;;;;;;;;;;4961859;28;20113;-70
2023/06/18 06:38:12;;;;;;;7.90;3.30;;;;;;;;;;4961961;28;20582;-70
2023/06/18 06:40:38;;;;;;;8.90;3.40;;;;;;;;;;4964002;28;20049;-69
2023/06/18 06:43:05;;;;;;;7.47;3.58;;;;;;;;;;4961528;28;20033;-70
2023/06/18 06:45:32;;;;;;;7.97;3.60;;;;;;;;;;4962927;28;20046;-69
2023/06/18 06:47:58;;;;;;;8.27;3.50;;;;;;;;;;4965272;28;20133;-70
2023/06/18 06:50:24;;;;;;;9.60;3.75;;;;;;;;;;4959798;28;20531;-69
2023/06/18 06:52:51;;;;;;;9.75;3.30;;;;;;;;;;4963978;28;20443;-70
2023/06/18 06:55:17;;;;;;;7.63;3.55;;;;;;;;;;4959911;28;20142;-69
2023/06/18 06:57:43;;;;;;;8.05;3.53;;;;;;;;;;4963297;28;20033;-69
2023/06/18 07:00:10;;;;;;;8.05;3.95;;;;;;;;;;4959496;28;20034;-69
2023/06/18 07:02:37;;;;;;;7.75;3.70;;;;;;;;;;4962952;28;20172;-69
2023/06/18 07:05:04;;;;;;;7.78;3.45;;;;;;;;;;4958367;28;20045;-69
2023/06/18 07:07:30;;;;;;;7.85;3.45;;;;;;;;;;4963022;28;20037;-70
2023/06/18 07:09:56;;;;;;;9.60;3.60;;;;;;;;;;4963153;28;20334;-70
2023/06/18 07:12:22;;;;;;;7.90;3.30;;;;;;;;;;4942000;28;20725;-70
2023/06/18 07:14:49;;;;;;;8.60;3.38;;;;;;;;;;4963887;28;20488;-70
2023/06/18 07:17:15;;;;;;;9.00;3.55;;;;;;;;;;4960273;28;20392;-70
2023/06/18 07:19:41;;;;;;;7.05;3.20;;;;;;;;;;4961458;28;20869;-70
2023/06/18 07:22:07;;;;;;;8.25;3.30;;;;;;;;;;4960871;28;20041;-69
2023/06/18 07:24:33;;;;;;;7.30;3.60;;;;;;;;;;4949255;28;20030;-70
2023/06/18 07:26:59;;;;;;;7.18;3.00;;;;;;;;;;4965287;28;20080;-70
2023/06/18 07:29:25;;;;;;;7.28;3.15;;;;;;;;;;4958529;28;20330;-70
2023/06/18 07:31:52;;;;;;;6.25;2.80;;;;;;;;;;4964050;28;20129;-71
2023/06/18 07:34:18;;;;;;;7.43;2.85;;;;;;;;;;4946010;28;20053;-71
2023/06/18 07:36:44;;;;;;;9.25;2.83;;;;;;;;;;4961785;28;20096;-70
2023/06/18 07:39:10;;;;;;;6.82;3.10;;;;;;;;;;4956509;28;20119;-70
2023/06/18 07:41:36;;;;;;;7.38;3.10;;;;;;;;;;4961827;28;20034;-70
2023/06/18 07:44:02;;;;;;;7.18;3.33;;;;;;;;;;4959689;28;20034;-70
2023/06/18 07:46:29;;;;;;;6.53;2.70;;;;;;;;;;4949769;28;20018;-70
2023/06/18 07:48:55;;;;;;;6.75;3.10;;;;;;;;;;4961391;28;20132;-70
2023/06/18 07:51:21;;;;;;;7.20;3.10;;;;;;;;;;4954013;28;20066;-70
2023/06/18 07:53:47;;;;;;;8.30;3.40;;;;;;;;;;4960046;28;20049;-71
2023/06/18 07:56:13;;;;;;;6.85;2.92;;;;;;;;;;4961750;28;20030;-72
2023/06/18 07:58:40;;;;;;;7.10;2.97;;;;;;;;;;4968093;28;20088;-70
2023/06/18 08:01:06;;;;;;;6.60;2.60;;;;;;;;;;4948516;28;20030;-70
2023/06/18 08:03:32;;;;;;;6.90;3.03;;;;;;;;;;4963012;28;20464;-70
2023/06/18 08:05:59;;;;;;;7.88;2.78;;;;;;;;;;4946331;28;20147;-72
2023/06/18 08:08:25;;;;;;;6.50;2.92;;;;;;;;;;4956513;28;20057;-72
2023/06/18 08:10:51;;;;;;;7.97;3.10;;;;;;;;;;4957501;28;20067;-71
2023/06/18 08:13:18;;;;;;;6.90;2.60;;;;;;;;;;4955999;28;20066;-72
2023/06/18 08:15:44;;;;;;;7.85;3.13;;;;;;;;;;4959203;28;20530;-70
2023/06/18 08:18:10;;;;;;;8.15;3.30;;;;;;;;;;4940668;28;20337;-70
2023/06/18 08:20:36;;;;;;;7.82;3.20;;;;;;;;;;4958536;28;20031;-72
2023/06/18 08:23:02;;;;;;;6.90;3.13;;;;;;;;;;4940401;28;20775;-70
2023/06/18 08:25:28;;;;;;;8.35;3.60;;;;;;;;;;4959550;28;20452;-70
2023/06/18 08:27:56;;;;;;;12.35;3.88;;;;;;;;;;4956611;28;20061;-70
2023/06/18 08:30:22;;;;;;;15.77;8.48;;;;;;;;;;4953256;28;21806;-70
2023/06/18 08:32:48;;;;;;;13.20;9.80;;;;;;;;;;4947331;28;20038;-70
2023/06/18 08:35:15;;;;;;;13.85;9.30;;;;;;;;;;4934606;28;20042;-70
2023/06/18 08:37:42;;;;;;;13.02;7.78;;;;;;;;;;4958827;28;20034;-70
2023/06/18 08:40:10;;;;;;;11.85;7.03;;;;;;;;;;4952924;28;20054;-70
2023/06/18 08:42:36;;;;;;;12.15;7.53;;;;;;;;;;4957750;28;20087;-70
2023/06/18 08:45:02;;;;;;;13.82;8.93;;;;;;;;;;4955996;28;20108;-70
2023/06/18 08:47:29;;;;;;;13.70;8.95;;;;;;;;;;4941747;28;20069;-70
2023/06/18 08:49:59;;;;;;;11.52;7.45;;;;;;;;;;4943521;28;20084;-71
2023/06/18 08:52:27;;;;;;;7.88;4.20;;;;;;;;;;4937964;28;20353;-70
2023/06/18 08:54:54;;;;;;;9.15;4.03;;;;;;;;;;4961279;28;20023;-70
2023/06/18 08:57:44;;;;;;;8.80;4.00;;;;;;;;;;4954864;28;20085;-71
2023/06/18 09:00:10;;;;;;;9.30;4.20;;;;;;;;;;4949886;28;20050;-70
2023/06/18 09:02:36;;;;;;;8.63;4.32;;;;;;;;;;4960309;28;20050;-70
2023/06/18 09:05:03;;;;;;;8.48;4.13;;;;;;;;;;4941699;28;20415;-70
2023/06/18 09:07:30;;;;;;;8.10;3.67;;;;;;;;;;4962275;28;20679;-70
2023/06/18 09:09:57;;;;;;;8.60;3.28;;;;;;;;;;4963984;28;20373;-70
2023/06/18 09:12:23;;;;;;;7.78;3.30;;;;;;;;;;4959859;28;20069;-70
2023/06/18 09:14:50;;;;;;;8.45;3.10;;;;;;;;;;4961958;28;20026;-70
2023/06/18 09:17:16;;;;;;;8.15;3.40;;;;;;;;;;4942618;28;20038;-70
2023/06/18 09:19:43;;;;;;;7.28;3.08;;;;;;;;;;4960113;28;20113;-70
2023/06/18 09:22:13;;;;;;;7.53;3.53;;;;;;;;;;4959014;28;20551;-70
2023/06/18 09:24:39;;;;;;;7.35;3.63;;;;;;;;;;4962078;28;20256;-70
2023/06/18 09:27:06;;;;;;;6.60;3.08;;;;;;;;;;4958397;28;20057;-69
2023/06/18 09:29:34;;;;;;;7.93;3.63;;;;;;;;;;4960406;28;20037;-71
2023/06/18 09:32:14;;;;;;;8.77;3.10;;;;;;;;;;4959889;28;20112;-71
2023/06/18 09:34:41;;;;;;;7.82;3.45;;;;;;;;;;4960140;28;20327;-71
2023/06/18 09:37:07;;;;;;;6.50;2.60;;;;;;;;;;4957216;28;20029;-71
2023/06/18 09:39:35;;;;;;;6.43;2.30;;;;;;;;;;4947144;28;20495;-72
2023/06/18 09:42:09;;;;;;;5.82;2.58;;;;;;;;;;4961988;28;20057;-71
2023/06/18 09:44:35;;;;;;;7.60;2.60;;;;;;;;;;4960807;28;20088;-72
2023/06/18 09:47:09;;;;;;;6.65;2.25;;;;;;;;;;4960201;28;20031;-73
2023/06/18 09:49:35;;;;;;;7.43;2.38;;;;;;;;;;4962159;28;20103;-73
2023/06/18 09:52:01;;;;;;;6.47;2.63;;;;;;;;;;4963665;28;20520;-72
2023/06/18 09:54:38;;;;;;;6.75;2.75;;;;;;;;;;4961578;28;20033;-72
2023/06/18 09:57:06;;;;;;;9.85;2.95;;;;;;;;;;4942132;28;20057;-71
2023/06/18 09:59:32;;;;;;;9.63;3.25;;;;;;;;;;4960463;28;20018;-71
2023/06/18 10:01:58;;;;;;;6.88;2.70;;;;;;;;;;4961575;28;20307;-71
2023/06/18 10:04:27;;;;;;;7.45;2.92;;;;;;;;;;4958700;28;20030;-71
2023/06/18 10:07:07;;;;;;;8.52;2.67;;;;;;;;;;4962130;28;20136;-71
2023/06/18 10:09:36;;;;;;;8.63;2.97;;;;;;;;;;4962146;28;20519;-71
2023/06/18 10:12:04;;;;;;;6.10;2.72;;;;;;;;;;4940220;28;20148;-71
2023/06/18 10:14:31;;;;;;;7.07;2.53;;;;;;;;;;4947215;28;20026;-74
2023/06/18 10:17:03;;;;;;;6.85;2.60;;;;;;;;;;4961457;28;20054;-73
2023/06/18 10:19:37;;;;;;;6.15;2.70;;;;;;;;;;4962559;28;20388;-71
2023/06/18 10:22:03;;;;;;;7.35;2.70;;;;;;;;;;4957310;28;20025;-73
2023/06/18 10:24:43;;;;;;;6.60;3.00;;;;;;;;;;4962708;28;20127;-72
2023/06/18 10:27:10;;;;;;;5.65;2.10;;;;;;;;;;4962147;28;20472;-74
2023/06/18 10:29:36;;;;;;;6.47;2.47;;;;;;;;;;4961209;28;20350;-73
2023/06/18 10:32:03;;;;;;;4.40;1.65;;;;;;;;;;4961412;28;20217;-71
2023/06/18 10:34:29;;;;;;;5.60;2.10;;;;;;;;;;4964177;28;20567;-71
2023/06/18 10:36:57;;;;;;;6.25;2.10;;;;;;;;;;4963539;28;20498;-71
2023/06/18 10:39:23;;;;;;;6.60;2.50;;;;;;;;;;4962759;28;20137;-71
2023/06/18 10:41:52;;;;;;;4.85;1.92;;;;;;;;;;4963831;28;20038;-70
2023/06/18 10:44:31;;;;;;;7.15;2.47;;;;;;;;;;4959091;28;20018;-71
2023/06/18 10:47:24;;;;;;;10.50;3.50;;;;;;;;;;4963717;28;20116;-70
2023/06/18 10:50:03;;;;;;;8.27;2.72;;;;;;;;;;4961685;28;20039;-70
2023/06/18 10:52:32;;;;;;;6.07;2.40;;;;;;;;;;4962436;28;20030;-71
2023/06/18 10:55:04;;;;;;;7.20;2.17;;;;;;;;;;4947635;28;20456;-71
2023/06/18 10:57:31;;;;;;;5.43;2.35;;;;;;;;;;4949275;28;20033;-70
2023/06/18 10:59:57;;;;;;;4.97;2.00;;;;;;;;;;4964443;28;20149;-71
2023/06/18 11:02:37;;;;;;;8.23;2.40;;;;;;;;;;4961981;28;20515;-71
2023/06/18 11:05:03;;;;;;;6.05;2.10;;;;;;;;;;4960557;28;20488;-69
2023/06/18 11:07:30;;;;;;;5.65;2.00;;;;;;;;;;4960108;28;20058;-69
2023/06/18 11:10:01;;;;;;;7.35;2.72;;;;;;;;;;4962320;28;20042;-70
2023/06/18 11:12:28;;;;;;;7.15;2.75;;;;;;;;;;4960420;28;20527;-70
2023/06/18 11:15:12;;;;;;;6.20;2.40;;;;;;;;;;4963557;28;20409;-70
2023/06/18 11:17:38;;;;;;;6.13;2.55;;;;;;;;;;4962165;28;20054;-70
2023/06/18 11:20:05;;;;;;;6.15;2.45;;;;;;;;;;4959644;28;20358;-69
2023/06/18 11:22:31;;;;;;;8.57;3.03;;;;;;;;;;4962440;28;20038;-70
2023/06/18 11:24:58;;;;;;;8.52;3.00;;;;;;;;;;4961450;28;20034;-72
2023/06/18 11:27:25;;;;;;;7.25;3.00;;;;;;;;;;4960904;28;20026;-69
2023/06/18 11:29:55;;;;;;;8.55;2.72;;;;;;;;;;4960475;28;20473;-76
2023/06/18 11:32:23;;;;;;;6.45;2.47;;;;;;;;;;4958964;28;20359;-75
2023/06/18 11:34:50;;;;;;;9.02;2.45;;;;;;;;;;4962182;28;20023;-76
2023/06/18 11:37:16;;;;;;;6.63;2.72;;;;;;;;;;4944211;28;20034;-76
2023/06/18 11:39:43;;;;;;;7.28;2.63;;;;;;;;;;4946068;28;20030;-75
2023/06/18 11:42:22;;;;;;;6.95;2.60;;;;;;;;;;4962235;28;20567;-76
2023/06/18 11:44:49;;;;;;;7.20;2.45;;;;;;;;;;4963981;28;20022;-76
2023/06/18 11:47:15;;;;;;;6.85;2.85;;;;;;;;;;4948179;28;20493;-77
2023/06/18 11:49:42;;;;;;;7.18;2.50;;;;;;;;;;4962248;28;20384;-76
2023/06/18 11:52:09;;;;;;;10.20;2.95;;;;;;;;;;4958771;28;20045;-77
2023/06/18 11:54:38;;;;;;;7.25;3.00;;;;;;;;;;4962985;28;20077;-77
2023/06/18 11:57:05;;;;;;;7.68;3.40;;;;;;;;;;4958842;28;20034;-76
2023/06/18 11:59:32;;;;;;;9.50;2.92;;;;;;;;;;4963034;28;20030;-77
2023/06/18 12:02:10;;;;;;;7.28;2.60;;;;;;;;;;4962354;28;20080;-76
2023/06/18 12:04:36;;;;;;;6.15;2.70;;;;;;;;;;4961649;28;20034;-76
2023/06/18 12:07:02;;;;;;;7.60;2.92;;;;;;;;;;4961873;28;20117;-76
2023/06/18 12:09:33;;;;;;;8.02;2.50;;;;;;;;;;4945351;28;20050;-75
2023/06/18 12:12:18;;;;;;;8.10;2.83;;;;;;;;;;4944434;28;20042;-75
2023/06/18 12:14:44;;;;;;;8.05;2.60;;;;;;;;;;4963917;28;20448;-76
2023/06/18 12:17:33;;;;;;;6.32;2.13;;;;;;;;;;4959097;28;20378;-76
2023/06/18 12:20:02;;;;;;;8.52;2.90;;;;;;;;;;4933457;28;20499;-76
2023/06/18 12:22:29;;;;;;;9.65;2.78;;;;;;;;;;4946767;28;20682;-76
2023/06/18 12:24:55;;;;;;;8.30;2.58;;;;;;;;;;4961080;28;20042;-76
2023/06/18 12:27:24;;;;;;;8.07;2.70;;;;;;;;;;4957389;28;20109;-76
2023/06/18 12:29:51;;;;;;;7.18;2.60;;;;;;;;;;4947513;28;20046;-76
2023/06/18 12:32:17;;;;;;;7.45;2.40;;;;;;;;;;4947420;28;20144;-77
2023/06/18 12:34:43;;;;;;;6.88;2.50;;;;;;;;;;4944020;28;20097;-73
2023/06/18 12:37:09;;;;;;;7.57;2.75;;;;;;;;;;4963234;28;20444;-75
2023/06/18 12:39:36;;;;;;;7.90;2.60;;;;;;;;;;4965673;28;20542;-76
2023/06/18 12:42:02;;;;;;;8.13;2.58;;;;;;;;;;4946896;28;20591;-77
2023/06/18 12:44:28;;;;;;;7.07;2.50;;;;;;;;;;4965863;28;20034;-76
2023/06/18 12:46:56;;;;;;;6.78;2.70;;;;;;;;;;4964858;28;20046;-75
2023/06/18 12:49:23;;;;;;;6.88;2.30;;;;;;;;;;4958680;28;20801;-76
2023/06/18 12:51:50;;;;;;;5.97;2.40;;;;;;;;;;4945382;28;20377;-76
2023/06/18 12:54:18;;;;;;;7.10;2.30;;;;;;;;;;4961284;28;20117;-76
2023/06/18 12:56:53;;;;;;;7.57;2.50;;;;;;;;;;4964750;28;20026;-76
2023/06/18 12:59:19;;;;;;;5.95;2.38;;;;;;;;;;4960712;28;20340;-78
2023/06/18 13:01:46;;;;;;;8.77;2.53;;;;;;;;;;4967393;28;20042;-76
2023/06/18 13:04:14;;;;;;;6.63;2.25;;;;;;;;;;4949684;28;20312;-76
2023/06/18 13:06:41;;;;;;;9.00;2.60;;;;;;;;;;4962132;28;20502;-76
2023/06/18 13:09:07;;;;;;;5.88;2.20;;;;;;;;;;4941791;28;20042;-75
2023/06/18 13:11:33;;;;;;;6.07;2.35;;;;;;;;;;4963170;28;20034;-77
2023/06/18 13:14:00;;;;;;;6.13;2.30;;;;;;;;;;4950069;28;20078;-76
2023/06/18 13:16:26;;;;;;;7.55;2.60;;;;;;;;;;4960808;28;20571;-76
2023/06/18 13:18:53;;;;;;;8.20;2.58;;;;;;;;;;4964799;28;20360;-76
2023/06/18 13:21:19;;;;;;;7.97;2.30;;;;;;;;;;4959719;28;20026;-75
2023/06/18 13:23:45;;;;;;;7.85;2.50;;;;;;;;;;4961667;28;20026;-76
2023/06/18 13:26:11;;;;;;;7.88;2.33;;;;;;;;;;4944760;28;20038;-75
2023/06/18 13:28:38;;;;;;;7.28;2.40;;;;;;;;;;4963457;28;20112;-76
2023/06/18 13:31:04;;;;;;;7.07;2.30;;;;;;;;;;4961418;28;20042;-74
2023/06/18 13:33:30;;;;;;;6.38;2.15;;;;;;;;;;4949289;28;20597;-75
2023/06/18 13:35:57;;;;;;;11.40;2.28;;;;;;;;;;4948630;28;20030;-75
2023/06/18 13:38:23;;;;;;;6.22;2.22;;;;;;;;;;4961347;28;20038;-76
2023/06/18 13:40:49;;;;;;;6.68;2.50;;;;;;;;;;4963568;28;20034;-76
2023/06/18 13:43:15;;;;;;;5.70;2.10;;;;;;;;;;4960622;28;20538;-75
2023/06/18 13:45:42;;;;;;;7.35;2.10;;;;;;;;;;4949027;28;20648;-75
2023/06/18 13:48:08;;;;;;;5.50;1.92;;;;;;;;;;4960987;28;20128;-76
2023/06/18 13:50:35;;;;;;;7.38;2.22;;;;;;;;;;4950467;28;20034;-75
2023/06/18 13:53:01;;;;;;;6.38;2.38;;;;;;;;;;4965241;28;20026;-75
2023/06/18 13:55:28;;;;;;;5.72;1.95;;;;;;;;;;4948352;28;20444;-75
2023/06/18 13:57:54;;;;;;;7.03;2.30;;;;;;;;;;4963592;28;20115;-75
2023/06/18 14:00:21;;;;;;;6.55;2.33;;;;;;;;;;4947198;28;20115;-75
2023/06/18 14:02:47;;;;;;;5.47;2.08;;;;;;;;;;4965019;28;20118;-76
2023/06/18 14:05:13;;;;;;;9.57;2.60;;;;;;;;;;4945306;28;20077;-75
2023/06/18 14:07:39;;;;;;;7.43;2.50;;;;;;;;;;4961440;28;20033;-74
2023/06/18 14:10:06;;;;;;;8.10;2.22;;;;;;;;;;4959295;28;20154;-75
2023/06/18 14:12:32;;;;;;;6.93;2.42;;;;;;;;;;4962518;28;20424;-75
2023/06/18 14:14:59;;;;;;;5.78;2.22;;;;;;;;;;4947578;28;20085;-73
2023/06/18 14:17:25;;;;;;;6.50;2.20;;;;;;;;;;4946093;28;20164;-74
2023/06/18 14:19:52;;;;;;;5.80;2.05;;;;;;;;;;4962430;28;20365;-75
2023/06/18 14:22:18;;;;;;;7.18;2.08;;;;;;;;;;4962361;28;20038;-75
2023/06/18 14:24:47;;;;;;;7.70;2.10;;;;;;;;;;4963916;28;20312;-75
2023/06/18 14:27:13;;;;;;;6.05;2.40;;;;;;;;;;4942372;28;20105;-76
2023/06/18 14:29:40;;;;;;;7.05;2.22;;;;;;;;;;4965012;28;20048;-76
2023/06/18 14:32:06;;;;;;;5.82;2.00;;;;;;;;;;4961635;28;20034;-76
2023/06/18 14:34:32;;;;;;;9.38;2.40;;;;;;;;;;4962819;28;20226;-76
2023/06/18 14:36:58;;;;;;;8.20;2.40;;;;;;;;;;4960717;28;20065;-75
2023/06/18 14:39:25;;;;;;;6.68;2.40;;;;;;;;;;4959086;28;20104;-75
2023/06/18 14:41:51;;;;;;;6.70;2.30;;;;;;;;;;4962939;28;20027;-75